sensor_id;sensor_type;location;lat;lon;timestamp;pressure;altitude;pressure_sealevel;temperature;humidity
4410;BME280;2218;51.408;7.208;2024-01-11T00:01:45;101171.97;;;17.45;25.26
4410;BME280;2218;51.408;7.208;2024-01-11T00:04:13;101178.22;;;17.43;25.18
4410;BME280;2218;51.408;7.208;2024-01-11T00:06:41;101172.97;;;17.43;25.30
4410;BME280;2218;51.408;7.208;2024-01-11T00:09:09;101171.25;;;17.42;25.38
4410;BME280;2218;51.408;7.208;2024-01-11T00:11:36;101175.78;;;17.38;25.27
4410;BME280;2218;51.408;7.208;2024-01-11T00:14:03;101167.97;;;17.37;25.09
4410;BME280;2218;51.408;7.208;2024-01-11T00:16:31;101177.63;;;17.36;25.18
4410;BME280;2218;51.408;7.208;2024-01-11T00:18:59;101175.03;;;17.35;25.31
4410;BME280;2218;51.408;7.208;2024-01-11T00:21:26;101171.59;;;17.33;25.47
4410;BME280;2218;51.408;7.208;2024-01-11T00:23:53;101169.91;;;17.31;25.54
4410;BME280;2218;51.408;7.208;2024-01-11T00:26:20;101174.34;;;17.29;25.66
4410;BME280;2218;51.408;7.208;2024-01-11T00:28:47;101160.41;;;17.27;24.91
4410;BME280;2218;51.408;7.208;2024-01-11T00:31:15;101154.34;;;17.25;25.57
4410;BME280;2218;51.408;7.208;2024-01-11T00:33:43;101157.91;;;17.24;25.48
4410;BME280;2218;51.408;7.208;2024-01-11T00:36:10;101161.44;;;17.23;25.73
4410;BME280;2218;51.408;7.208;2024-01-11T00:38:37;101145.78;;;17.20;25.84
4410;BME280;2218;51.408;7.208;2024-01-11T00:41:04;101153.66;;;17.20;25.61
4410;BME280;2218;51.408;7.208;2024-01-11T00:43:31;101151.09;;;17.19;25.76
4410;BME280;2218;51.408;7.208;2024-01-11T00:45:58;101142.38;;;17.18;25.63
4410;BME280;2218;51.408;7.208;2024-01-11T00:48:25;101152.09;;;17.16;25.59
4410;BME280;2218;51.408;7.208;2024-01-11T00:50:53;101151.28;;;17.14;25.63
4410;BME280;2218;51.408;7.208;2024-01-11T00:53:20;101154.81;;;17.13;25.72
4410;BME280;2218;51.408;7.208;2024-01-11T00:55:48;101152.25;;;17.12;25.68
4410;BME280;2218;51.408;7.208;2024-01-11T00:58:15;101160.19;;;17.10;25.89
4410;BME280;2218;51.408;7.208;2024-01-11T01:00:42;101157.53;;;17.10;25.77
4410;BME280;2218;51.408;7.208;2024-01-11T01:03:09;101161.00;;;17.12;25.85
4410;BME280;2218;51.408;7.208;2024-01-11T01:05:36;101159.91;;;17.18;25.61
4410;BME280;2218;51.408;7.208;2024-01-11T01:08:05;101152.78;;;17.21;25.74
4410;BME280;2218;51.408;7.208;2024-01-11T01:10:32;101151.72;;;17.25;25.53
4410;BME280;2218;51.408;7.208;2024-01-11T01:12:59;101158.63;;;17.28;25.37
4410;BME280;2218;51.408;7.208;2024-01-11T01:15:26;101158.47;;;17.33;25.61
4410;BME280;2218;51.408;7.208;2024-01-11T01:17:52;101161.00;;;17.36;25.52
4410;BME280;2218;51.408;7.208;2024-01-11T01:20:20;101160.84;;;17.39;25.15
4410;BME280;2218;51.408;7.208;2024-01-11T01:22:47;101160.75;;;17.42;25.33
4410;BME280;2218;51.408;7.208;2024-01-11T01:25:15;101167.72;;;17.43;25.30
4410;BME280;2218;51.408;7.208;2024-01-11T01:27:42;101164.16;;;17.44;25.29
4410;BME280;2218;51.408;7.208;2024-01-11T01:30:09;101167.59;;;17.46;25.16
4410;BME280;2218;51.408;7.208;2024-01-11T01:32:37;101169.31;;;17.47;25.07
4410;BME280;2218;51.408;7.208;2024-01-11T01:35:04;101167.47;;;17.49;24.98
4410;BME280;2218;51.408;7.208;2024-01-11T01:37:31;101163.06;;;17.49;24.87
4410;BME280;2218;51.408;7.208;2024-01-11T01:39:57;101166.53;;;17.50;24.99
4410;BME280;2218;51.408;7.208;2024-01-11T01:42:25;101164.72;;;17.52;25.07
4410;BME280;2218;51.408;7.208;2024-01-11T01:44:53;101167.38;;;17.52;24.92
4410;BME280;2218;51.408;7.208;2024-01-11T01:47:21;101166.44;;;17.53;24.34
4410;BME280;2218;51.408;7.208;2024-01-11T01:49:49;101170.78;;;17.54;24.96
4410;BME280;2218;51.408;7.208;2024-01-11T01:52:17;101162.88;;;17.54;24.81
4410;BME280;2218;51.408;7.208;2024-01-11T01:54:44;101164.56;;;17.56;25.00
4410;BME280;2218;51.408;7.208;2024-01-11T01:57:13;101156.66;;;17.56;24.90
4410;BME280;2218;51.408;7.208;2024-01-11T01:59:43;101158.44;;;17.56;24.78
4410;BME280;2218;51.408;7.208;2024-01-11T02:02:12;101160.16;;;17.57;24.63
4410;BME280;2218;51.408;7.208;2024-01-11T02:04:39;101161.84;;;17.58;24.77
4410;BME280;2218;51.408;7.208;2024-01-11T02:07:06;101157.44;;;17.58;24.76
4410;BME280;2218;51.408;7.208;2024-01-11T02:09:36;101160.00;;;17.60;24.80
4410;BME280;2218;51.408;7.208;2024-01-11T02:12:04;101157.38;;;17.60;24.66
4410;BME280;2218;51.408;7.208;2024-01-11T02:14:32;101154.75;;;17.60;24.83
4410;BME280;2218;51.408;7.208;2024-01-11T02:17:01;101160.81;;;17.62;24.76
4410;BME280;2218;51.408;7.208;2024-01-11T02:19:28;101162.59;;;17.62;24.73
4410;BME280;2218;51.408;7.208;2024-01-11T02:22:00;101166.09;;;17.62;24.75
4410;BME280;2218;51.408;7.208;2024-01-11T02:24:32;101163.47;;;17.62;24.60
4410;BME280;2218;51.408;7.208;2024-01-11T02:27:01;101166.00;;;17.64;24.66
4410;BME280;2218;51.408;7.208;2024-01-11T02:29:30;101165.09;;;17.65;24.64
4410;BME280;2218;51.408;7.208;2024-01-11T02:31:58;101161.59;;;17.64;24.71
4410;BME280;2218;51.408;7.208;2024-01-11T02:34:27;101163.31;;;17.65;24.55
4410;BME280;2218;51.408;7.208;2024-01-11T02:36:54;101169.47;;;17.66;24.95
4410;BME280;2218;51.408;7.208;2024-01-11T02:39:23;101159.78;;;17.66;24.56
4410;BME280;2218;51.408;7.208;2024-01-11T02:41:56;101165.06;;;17.66;24.57
4410;BME280;2218;51.408;7.208;2024-01-11T02:44:23;101168.53;;;17.67;24.89
4410;BME280;2218;51.408;7.208;2024-01-11T02:46:50;101169.38;;;17.67;24.30
4410;BME280;2218;51.408;7.208;2024-01-11T02:49:17;101168.47;;;17.68;24.63
4410;BME280;2218;51.408;7.208;2024-01-11T02:51:45;101173.72;;;17.68;24.57
4410;BME280;2218;51.408;7.208;2024-01-11T02:54:12;101179.84;;;17.69;24.62
4410;BME280;2218;51.408;7.208;2024-01-11T02:56:39;101166.69;;;17.69;24.36
4410;BME280;2218;51.408;7.208;2024-01-11T02:59:07;101164.91;;;17.69;24.38
4410;BME280;2218;51.408;7.208;2024-01-11T03:01:35;101166.66;;;17.70;24.15
4410;BME280;2218;51.408;7.208;2024-01-11T03:04:02;101166.66;;;17.70;24.39
4410;BME280;2218;51.408;7.208;2024-01-11T03:06:29;101170.13;;;17.71;24.47
4410;BME280;2218;51.408;7.208;2024-01-11T03:08:56;101168.34;;;17.71;24.23
4410;BME280;2218;51.408;7.208;2024-01-11T03:11:23;101161.31;;;17.72;24.70
4410;BME280;2218;51.408;7.208;2024-01-11T03:13:50;101169.22;;;17.72;24.51
4410;BME280;2218;51.408;7.208;2024-01-11T03:16:18;101168.34;;;17.71;24.49
4410;BME280;2218;51.408;7.208;2024-01-11T03:18:45;101170.06;;;17.72;24.40
4410;BME280;2218;51.408;7.208;2024-01-11T03:21:12;101170.94;;;17.73;24.46
4410;BME280;2218;51.408;7.208;2024-01-11T03:23:39;101166.53;;;17.73;24.58
4410;BME280;2218;51.408;7.208;2024-01-11T03:26:14;101170.94;;;17.73;24.59
4410;BME280;2218;51.408;7.208;2024-01-11T03:28:42;101172.66;;;17.74;23.94
4410;BME280;2218;51.408;7.208;2024-01-11T03:31:09;101180.53;;;17.74;24.59
4410;BME280;2218;51.408;7.208;2024-01-11T03:33:39;101178.75;;;17.74;24.52
4410;BME280;2218;51.408;7.208;2024-01-11T03:36:09;101181.41;;;17.74;24.45
4410;BME280;2218;51.408;7.208;2024-01-11T03:38:37;101191.03;;;17.75;24.58
4410;BME280;2218;51.408;7.208;2024-01-11T03:41:08;101195.34;;;17.76;24.29
4410;BME280;2218;51.408;7.208;2024-01-11T03:43:35;101183.13;;;17.75;24.39
4410;BME280;2218;51.408;7.208;2024-01-11T03:46:02;101191.88;;;17.76;24.87
4410;BME280;2218;51.408;7.208;2024-01-11T03:48:30;101195.34;;;17.76;24.58
4410;BME280;2218;51.408;7.208;2024-01-11T03:50:58;101196.28;;;17.75;24.55
4410;BME280;2218;51.408;7.208;2024-01-11T03:53:26;101198.91;;;17.75;24.07
4410;BME280;2218;51.408;7.208;2024-01-11T03:55:53;101192.72;;;17.76;24.50
4410;BME280;2218;51.408;7.208;2024-01-11T03:58:20;101195.34;;;17.76;24.65
4410;BME280;2218;51.408;7.208;2024-01-11T04:00:48;101201.47;;;17.77;24.44
4410;BME280;2218;51.408;7.208;2024-01-11T04:03:15;101197.91;;;17.78;24.35
4410;BME280;2218;51.408;7.208;2024-01-11T04:05:43;101202.31;;;17.77;24.13
4410;BME280;2218;51.408;7.208;2024-01-11T04:08:11;101199.69;;;17.77;24.34
4410;BME280;2218;51.408;7.208;2024-01-11T04:10:38;101202.31;;;17.77;24.46
4410;BME280;2218;51.408;7.208;2024-01-11T04:13:07;101197.97;;;17.76;24.26
4410;BME280;2218;51.408;7.208;2024-01-11T04:15:34;101204.94;;;17.77;24.34
4410;BME280;2218;51.408;7.208;2024-01-11T04:18:02;101204.94;;;17.77;24.09
4410;BME280;2218;51.408;7.208;2024-01-11T04:20:29;101204.94;;;17.77;24.53
4410;BME280;2218;51.408;7.208;2024-01-11T04:22:56;101206.66;;;17.78;24.36
4410;BME280;2218;51.408;7.208;2024-01-11T04:25:24;101211.91;;;17.78;24.33
4410;BME280;2218;51.408;7.208;2024-01-11T04:27:51;101210.22;;;17.77;24.66
4410;BME280;2218;51.408;7.208;2024-01-11T04:30:18;101202.31;;;17.77;24.45
4410;BME280;2218;51.408;7.208;2024-01-11T04:32:45;101211.91;;;17.78;24.41
4410;BME280;2218;51.408;7.208;2024-01-11T04:35:12;101208.44;;;17.78;24.34
4410;BME280;2218;51.408;7.208;2024-01-11T04:37:39;101212.72;;;17.80;24.30
4410;BME280;2218;51.408;7.208;2024-01-11T04:40:08;101208.38;;;17.79;24.16
4410;BME280;2218;51.408;7.208;2024-01-11T04:42:37;101216.22;;;17.81;24.23
4410;BME280;2218;51.408;7.208;2024-01-11T04:45:04;101220.63;;;17.80;24.43
4410;BME280;2218;51.408;7.208;2024-01-11T04:47:31;101206.59;;;17.80;24.23
4410;BME280;2218;51.408;7.208;2024-01-11T04:49:59;101211.84;;;17.80;24.29
4410;BME280;2218;51.408;7.208;2024-01-11T04:52:25;101204.84;;;17.80;24.40
4410;BME280;2218;51.408;7.208;2024-01-11T04:54:52;101210.09;;;17.80;24.21
4410;BME280;2218;51.408;7.208;2024-01-11T04:57:19;101224.09;;;17.81;24.73
4410;BME280;2218;51.408;7.208;2024-01-11T04:59:48;101220.63;;;17.80;24.27
4410;BME280;2218;51.408;7.208;2024-01-11T05:02:15;101235.47;;;17.81;24.25
4410;BME280;2218;51.408;7.208;2024-01-11T05:04:41;101238.09;;;17.81;24.36
4410;BME280;2218;51.408;7.208;2024-01-11T05:07:09;101245.16;;;17.81;24.18
4410;BME280;2218;51.408;7.208;2024-01-11T05:09:35;101248.63;;;17.81;24.24
4410;BME280;2218;51.408;7.208;2024-01-11T05:12:03;101240.66;;;17.83;24.10
4410;BME280;2218;51.408;7.208;2024-01-11T05:14:30;101242.38;;;17.84;23.78
4410;BME280;2218;51.408;7.208;2024-01-11T05:16:59;101238.88;;;17.83;24.09
4410;BME280;2218;51.408;7.208;2024-01-11T05:19:27;101256.34;;;17.86;24.47
4410;BME280;2218;51.408;7.208;2024-01-11T05:21:54;101252.78;;;17.87;24.23
4410;BME280;2218;51.408;7.208;2024-01-11T05:24:21;101259.75;;;17.88;24.16
4410;BME280;2218;51.408;7.208;2024-01-11T05:26:48;101260.59;;;17.89;24.37
4410;BME280;2218;51.408;7.208;2024-01-11T05:29:14;101250.94;;;17.89;24.22
4410;BME280;2218;51.408;7.208;2024-01-11T05:31:41;101251.78;;;17.90;24.27
4410;BME280;2218;51.408;7.208;2024-01-11T05:34:10;101258.72;;;17.92;24.06
4410;BME280;2218;51.408;7.208;2024-01-11T05:36:38;101267.47;;;17.93;24.09
4410;BME280;2218;51.408;7.208;2024-01-11T05:39:05;101272.72;;;17.93;23.97
4410;BME280;2218;51.408;7.208;2024-01-11T05:41:32;101276.22;;;17.93;24.50
4410;BME280;2218;51.408;7.208;2024-01-11T05:43:59;101282.28;;;17.95;24.45
4410;BME280;2218;51.408;7.208;2024-01-11T05:46:26;101287.56;;;17.95;23.86
4410;BME280;2218;51.408;7.208;2024-01-11T05:48:53;101285.72;;;17.97;23.99
4410;BME280;2218;51.408;7.208;2024-01-11T05:51:21;101291.81;;;17.98;23.93
4410;BME280;2218;51.408;7.208;2024-01-11T05:53:48;101286.56;;;17.98;23.83
4410;BME280;2218;51.408;7.208;2024-01-11T05:56:19;101279.47;;;18.00;23.83
4410;BME280;2218;51.408;7.208;2024-01-11T05:58:47;101286.44;;;18.01;23.94
4410;BME280;2218;51.408;7.208;2024-01-11T06:01:14;101280.34;;;18.00;23.94
4410;BME280;2218;51.408;7.208;2024-01-11T06:03:41;101282.03;;;18.01;24.10
4410;BME280;2218;51.408;7.208;2024-01-11T06:06:08;101277.63;;;18.02;23.90
4410;BME280;2218;51.408;7.208;2024-01-11T06:08:36;101275.00;;;18.02;24.02
4410;BME280;2218;51.408;7.208;2024-01-11T06:11:03;101281.06;;;18.04;23.66
4410;BME280;2218;51.408;7.208;2024-01-11T06:13:30;101282.75;;;18.05;23.89
4410;BME280;2218;51.408;7.208;2024-01-11T06:15:57;101269.59;;;18.05;23.81
4410;BME280;2218;51.408;7.208;2024-01-11T06:18:24;101270.50;;;18.05;23.71
4410;BME280;2218;51.408;7.208;2024-01-11T06:20:51;101255.56;;;18.06;23.70
4410;BME280;2218;51.408;7.208;2024-01-11T06:23:18;101259.91;;;18.07;23.51
4410;BME280;2218;51.408;7.208;2024-01-11T06:25:47;101264.25;;;18.08;23.54
4410;BME280;2218;51.408;7.208;2024-01-11T06:28:14;101263.31;;;18.09;23.80
4410;BME280;2218;51.408;7.208;2024-01-11T06:30:42;101258.06;;;18.09;23.82
4410;BME280;2218;51.408;7.208;2024-01-11T06:33:11;101261.50;;;18.11;23.52
4410;BME280;2218;51.408;7.208;2024-01-11T06:35:38;101259.78;;;18.10;23.79
4410;BME280;2218;51.408;7.208;2024-01-11T06:38:05;101256.22;;;18.11;23.85
4410;BME280;2218;51.408;7.208;2024-01-11T06:40:33;101260.72;;;18.29;23.12
4410;BME280;2218;51.408;7.208;2024-01-11T06:43:01;101268.28;;;18.59;22.77
4410;BME280;2218;51.408;7.208;2024-01-11T06:45:28;101295.50;;;18.81;22.92
4410;BME280;2218;51.408;7.208;2024-01-11T06:47:55;101288.44;;;19.02;22.48
4410;BME280;2218;51.408;7.208;2024-01-11T06:50:22;101292.25;;;19.16;22.26
4410;BME280;2218;51.408;7.208;2024-01-11T06:52:50;101285.59;;;19.07;21.98
4410;BME280;2218;51.408;7.208;2024-01-11T06:55:17;101276.84;;;19.06;21.73
4410;BME280;2218;51.408;7.208;2024-01-11T06:57:47;101279.22;;;19.13;21.39
4410;BME280;2218;51.408;7.208;2024-01-11T07:00:16;101273.66;;;19.19;21.76
4410;BME280;2218;51.408;7.208;2024-01-11T07:02:43;101275.31;;;19.21;21.76
4410;BME280;2218;51.408;7.208;2024-01-11T07:05:10;101276.94;;;19.24;21.65
4410;BME280;2218;51.408;7.208;2024-01-11T07:07:38;101289.94;;;19.28;21.67
4410;BME280;2218;51.408;7.208;2024-01-11T07:10:07;101292.03;;;19.41;21.60
4410;BME280;2218;51.408;7.208;2024-01-11T07:12:34;101300.59;;;19.46;21.36
4410;BME280;2218;51.408;7.208;2024-01-11T07:15:04;101301.53;;;19.45;21.65
4410;BME280;2218;51.408;7.208;2024-01-11T07:17:32;101308.34;;;19.49;21.50
4410;BME280;2218;51.408;7.208;2024-01-11T07:19:59;101316.22;;;19.50;21.81
4410;BME280;2218;51.408;7.208;2024-01-11T07:22:27;101316.78;;;19.57;21.46
4410;BME280;2218;51.408;7.208;2024-01-11T07:24:53;101313.97;;;19.61;21.70
4410;BME280;2218;51.408;7.208;2024-01-11T07:27:20;101313.97;;;19.61;21.59
4410;BME280;2218;51.408;7.208;2024-01-11T07:29:48;101322.66;;;19.63;21.42
4410;BME280;2218;51.408;7.208;2024-01-11T07:32:15;101313.75;;;19.66;21.64
4410;BME280;2218;51.408;7.208;2024-01-11T07:34:43;101314.47;;;19.70;21.44
4410;BME280;2218;51.408;7.208;2024-01-11T07:37:10;101315.06;;;19.76;21.33
4410;BME280;2218;51.408;7.208;2024-01-11T07:39:37;101307.00;;;19.79;20.98
4410;BME280;2218;51.408;7.208;2024-01-11T07:42:04;101310.28;;;19.84;21.21
4410;BME280;2218;51.408;7.208;2024-01-11T07:44:31;101301.56;;;19.82;21.04
4410;BME280;2218;51.408;7.208;2024-01-11T07:46:58;101306.72;;;19.85;20.94
4410;BME280;2218;51.408;7.208;2024-01-11T07:49:25;101314.56;;;19.87;21.06
4410;BME280;2218;51.408;7.208;2024-01-11T07:51:53;101293.31;;;20.09;20.74
4410;BME280;2218;51.408;7.208;2024-01-11T07:54:21;101297.44;;;19.96;21.05
4410;BME280;2218;51.408;7.208;2024-01-11T07:56:48;101307.50;;;19.87;20.86
4410;BME280;2218;51.408;7.208;2024-01-11T07:59:15;101303.16;;;19.86;20.58
4410;BME280;2218;51.408;7.208;2024-01-11T08:01:42;101295.09;;;19.90;20.48
4410;BME280;2218;51.408;7.208;2024-01-11T08:04:09;101296.16;;;19.85;20.53
4410;BME280;2218;51.408;7.208;2024-01-11T08:06:36;101290.88;;;19.85;20.71
4410;BME280;2218;51.408;7.208;2024-01-11T08:09:04;101290.59;;;19.92;20.48
4410;BME280;2218;51.408;7.208;2024-01-11T08:11:31;101287.19;;;19.90;20.72
4410;BME280;2218;51.408;7.208;2024-01-11T08:13:58;101285.31;;;19.92;20.63
4410;BME280;2218;51.408;7.208;2024-01-11T08:16:25;101284.47;;;19.91;20.40
4410;BME280;2218;51.408;7.208;2024-01-11T08:18:52;101285.41;;;19.90;20.58
4410;BME280;2218;51.408;7.208;2024-01-11T08:21:20;101285.31;;;19.92;20.71
4410;BME280;2218;51.408;7.208;2024-01-11T08:23:47;101291.34;;;19.94;20.63
4410;BME280;2218;51.408;7.208;2024-01-11T08:26:16;101292.16;;;19.96;20.47
4410;BME280;2218;51.408;7.208;2024-01-11T08:28:44;101291.22;;;19.97;20.45
4410;BME280;2218;51.408;7.208;2024-01-11T08:31:12;101299.09;;;20.34;20.30
4410;BME280;2218;51.408;7.208;2024-01-11T08:33:39;101305.06;;;20.57;20.08
4410;BME280;2218;51.408;7.208;2024-01-11T08:36:06;101309.75;;;20.69;20.18
4410;BME280;2218;51.408;7.208;2024-01-11T08:38:33;101302.28;;;20.77;20.18
4410;BME280;2218;51.408;7.208;2024-01-11T08:41:01;101317.53;;;20.89;20.40
4410;BME280;2218;51.408;7.208;2024-01-11T08:43:30;101319.75;;;20.44;19.81
4410;BME280;2218;51.408;7.208;2024-01-11T08:45:57;101318.69;;;20.11;19.46
4410;BME280;2218;51.408;7.208;2024-01-11T08:48:24;101318.47;;;19.97;19.76
4410;BME280;2218;51.408;7.208;2024-01-11T08:50:51;101330.09;;;19.93;19.79
4410;BME280;2218;51.408;7.208;2024-01-11T08:53:18;101339.03;;;19.91;20.08
4410;BME280;2218;51.408;7.208;2024-01-11T08:55:45;101332.94;;;19.88;20.11
4410;BME280;2218;51.408;7.208;2024-01-11T08:58:13;101324.47;;;19.82;20.05
4410;BME280;2218;51.408;7.208;2024-01-11T09:00:42;101343.88;;;19.81;20.26
4410;BME280;2218;51.408;7.208;2024-01-11T09:03:09;101327.22;;;19.79;20.26
4410;BME280;2218;51.408;7.208;2024-01-11T09:05:37;101346.72;;;19.76;20.43
4410;BME280;2218;51.408;7.208;2024-01-11T09:08:05;101358.19;;;19.75;20.29
4410;BME280;2218;51.408;7.208;2024-01-11T09:10:33;101351.22;;;19.74;20.35
4410;BME280;2218;51.408;7.208;2024-01-11T09:13:00;101351.25;;;19.73;20.27
4410;BME280;2218;51.408;7.208;2024-01-11T09:15:27;101339.09;;;19.70;20.11
4410;BME280;2218;51.408;7.208;2024-01-11T09:17:56;101343.50;;;19.70;20.37
4410;BME280;2218;51.408;7.208;2024-01-11T09:20:23;101351.47;;;19.68;20.31
4410;BME280;2218;51.408;7.208;2024-01-11T09:22:50;101350.59;;;19.68;20.01
4410;BME280;2218;51.408;7.208;2024-01-11T09:25:17;101353.25;;;19.68;20.21
4410;BME280;2218;51.408;7.208;2024-01-11T09:27:44;101358.59;;;19.66;19.57
4410;BME280;2218;51.408;7.208;2024-01-11T09:30:12;101370.09;;;19.65;20.33
4410;BME280;2218;51.408;7.208;2024-01-11T09:32:39;101367.44;;;19.65;20.32
4410;BME280;2218;51.408;7.208;2024-01-11T09:35:08;101355.16;;;19.64;19.97
4410;BME280;2218;51.408;7.208;2024-01-11T09:37:35;101362.22;;;19.63;20.30
4410;BME280;2218;51.408;7.208;2024-01-11T09:40:02;101356.94;;;19.63;20.09
4410;BME280;2218;51.408;7.208;2024-01-11T09:42:32;101364.00;;;19.63;20.19
4410;BME280;2218;51.408;7.208;2024-01-11T09:45:01;101369.28;;;19.63;20.06
4410;BME280;2218;51.408;7.208;2024-01-11T09:47:33;101356.09;;;19.63;20.85
4410;BME280;2218;51.408;7.208;2024-01-11T09:50:03;101366.38;;;19.69;20.98
4410;BME280;2218;51.408;7.208;2024-01-11T09:52:31;101375.84;;;19.73;21.19
4410;BME280;2218;51.408;7.208;2024-01-11T09:54:58;101386.41;;;19.73;21.41
4410;BME280;2218;51.408;7.208;2024-01-11T09:57:30;101383.78;;;19.73;21.43
4410;BME280;2218;51.408;7.208;2024-01-11T09:59:58;101392.53;;;19.74;21.25
4410;BME280;2218;51.408;7.208;2024-01-11T10:02:26;101382.88;;;19.74;21.57
4410;BME280;2218;51.408;7.208;2024-01-11T10:04:53;101383.66;;;19.76;21.56
4410;BME280;2218;51.408;7.208;2024-01-11T10:07:23;101385.50;;;19.74;21.06
4410;BME280;2218;51.408;7.208;2024-01-11T10:09:52;101383.97;;;19.69;21.07
4410;BME280;2218;51.408;7.208;2024-01-11T10:12:20;101390.25;;;19.66;20.85
4410;BME280;2218;51.408;7.208;2024-01-11T10:14:51;101385.91;;;19.65;21.21
4410;BME280;2218;51.408;7.208;2024-01-11T10:17:18;101398.16;;;19.66;21.12
4410;BME280;2218;51.408;7.208;2024-01-11T10:19:45;101388.56;;;19.65;20.93
4410;BME280;2218;51.408;7.208;2024-01-11T10:22:13;101389.44;;;19.64;21.03
4410;BME280;2218;51.408;7.208;2024-01-11T10:24:42;101394.72;;;19.64;20.81
4410;BME280;2218;51.408;7.208;2024-01-11T10:27:12;101393.00;;;19.63;20.80
4410;BME280;2218;51.408;7.208;2024-01-11T10:29:39;101393.00;;;19.63;20.94
4410;BME280;2218;51.408;7.208;2024-01-11T10:32:07;101397.44;;;19.62;21.19
4410;BME280;2218;51.408;7.208;2024-01-11T10:34:35;101403.53;;;19.65;21.26
4410;BME280;2218;51.408;7.208;2024-01-11T10:37:05;101407.06;;;19.63;21.21
4410;BME280;2218;51.408;7.208;2024-01-11T10:39:34;101403.38;;;19.68;21.42
4410;BME280;2218;51.408;7.208;2024-01-11T10:42:05;101405.97;;;19.69;21.76
4410;BME280;2218;51.408;7.208;2024-01-11T10:44:35;101401.53;;;19.70;21.73
4410;BME280;2218;51.408;7.208;2024-01-11T10:47:03;101398.81;;;19.71;21.63
4410;BME280;2218;51.408;7.208;2024-01-11T10:49:39;101397.97;;;19.71;21.60
4410;BME280;2218;51.408;7.208;2024-01-11T10:52:08;101402.31;;;19.72;21.64
4410;BME280;2218;51.408;7.208;2024-01-11T10:54:41;101398.81;;;19.71;21.90
4410;BME280;2218;51.408;7.208;2024-01-11T10:57:10;101401.47;;;19.71;21.83
4410;BME280;2218;51.408;7.208;2024-01-11T10:59:40;101401.47;;;19.71;21.99
4410;BME280;2218;51.408;7.208;2024-01-11T11:02:08;101390.97;;;19.70;22.12
4410;BME280;2218;51.408;7.208;2024-01-11T11:04:40;101389.19;;;19.70;22.06
4410;BME280;2218;51.408;7.208;2024-01-11T11:07:09;101396.19;;;19.71;22.10
4410;BME280;2218;51.408;7.208;2024-01-11T11:09:38;101394.41;;;19.72;22.18
4410;BME280;2218;51.408;7.208;2024-01-11T11:12:11;101385.63;;;19.71;22.21
4410;BME280;2218;51.408;7.208;2024-01-11T11:14:41;101379.41;;;19.72;22.36
4410;BME280;2218;51.408;7.208;2024-01-11T11:17:09;101383.84;;;19.72;22.36
4410;BME280;2218;51.408;7.208;2024-01-11T11:19:37;101368.03;;;19.72;22.22
4410;BME280;2218;51.408;7.208;2024-01-11T11:22:05;101368.03;;;19.72;22.39
4410;BME280;2218;51.408;7.208;2024-01-11T11:24:34;101361.88;;;19.71;22.38
4410;BME280;2218;51.408;7.208;2024-01-11T11:27:01;101362.75;;;19.72;22.53
4410;BME280;2218;51.408;7.208;2024-01-11T11:29:29;101383.00;;;19.71;22.51
4410;BME280;2218;51.408;7.208;2024-01-11T11:31:58;101371.50;;;19.72;22.56
4410;BME280;2218;51.408;7.208;2024-01-11T11:34:41;101373.28;;;19.72;22.31
4410;BME280;2218;51.408;7.208;2024-01-11T11:37:10;101378.50;;;19.73;22.39
4410;BME280;2218;51.408;7.208;2024-01-11T11:39:37;101370.66;;;19.72;22.50
4410;BME280;2218;51.408;7.208;2024-01-11T11:42:05;101379.41;;;19.72;22.44
4410;BME280;2218;51.408;7.208;2024-01-11T11:44:33;101373.22;;;19.73;22.79
4410;BME280;2218;51.408;7.208;2024-01-11T11:47:22;101370.56;;;19.73;22.55
4410;BME280;2218;51.408;7.208;2024-01-11T11:50:04;101360.03;;;19.73;22.80
4410;BME280;2218;51.408;7.208;2024-01-11T11:52:33;101352.09;;;19.73;22.86
4410;BME280;2218;51.408;7.208;2024-01-11T11:55:02;101355.69;;;19.72;22.64
4410;BME280;2218;51.408;7.208;2024-01-11T11:57:30;101342.50;;;19.72;22.56
4410;BME280;2218;51.408;7.208;2024-01-11T11:59:58;101348.63;;;19.73;22.88
4410;BME280;2218;51.408;7.208;2024-01-11T12:02:27;101346.84;;;19.73;22.94
4410;BME280;2218;51.408;7.208;2024-01-11T12:04:55;101349.47;;;19.73;22.78
4410;BME280;2218;51.408;7.208;2024-01-11T12:07:24;101350.41;;;19.72;22.93
4410;BME280;2218;51.408;7.208;2024-01-11T12:09:52;101359.16;;;19.73;23.04
4410;BME280;2218;51.408;7.208;2024-01-11T12:12:19;101361.75;;;19.74;23.10
4410;BME280;2218;51.408;7.208;2024-01-11T12:14:47;101352.09;;;19.73;23.00
4410;BME280;2218;51.408;7.208;2024-01-11T12:17:16;101352.06;;;19.75;23.21
4410;BME280;2218;51.408;7.208;2024-01-11T12:19:44;101343.28;;;19.74;23.22
4410;BME280;2218;51.408;7.208;2024-01-11T12:22:11;101352.06;;;19.75;22.98
4410;BME280;2218;51.408;7.208;2024-01-11T12:24:38;101355.56;;;19.75;23.33
4410;BME280;2218;51.408;7.208;2024-01-11T12:27:05;101359.13;;;19.74;23.24
4410;BME280;2218;51.408;7.208;2024-01-11T12:29:32;101358.19;;;19.75;23.08
4410;BME280;2218;51.408;7.208;2024-01-11T12:31:59;101367.91;;;19.75;23.28
4410;BME280;2218;51.408;7.208;2024-01-11T12:34:28;101365.25;;;19.75;23.51
4410;BME280;2218;51.408;7.208;2024-01-11T12:36:58;101359.13;;;19.74;22.90
4410;BME280;2218;51.408;7.208;2024-01-11T12:39:27;101365.19;;;19.76;23.41
4410;BME280;2218;51.408;7.208;2024-01-11T12:41:54;101361.75;;;19.74;23.35
4410;BME280;2218;51.408;7.208;2024-01-11T12:44:23;101363.47;;;19.75;23.35
4410;BME280;2218;51.408;7.208;2024-01-11T12:46:51;101375.72;;;19.76;23.48
4410;BME280;2218;51.408;7.208;2024-01-11T12:49:18;101377.50;;;19.76;23.57
4410;BME280;2218;51.408;7.208;2024-01-11T12:51:45;101368.75;;;19.75;23.41
4410;BME280;2218;51.408;7.208;2024-01-11T12:54:14;101368.75;;;19.75;23.57
4410;BME280;2218;51.408;7.208;2024-01-11T12:56:45;101359.03;;;19.76;23.52
4410;BME280;2218;51.408;7.208;2024-01-11T12:59:12;101370.44;;;19.76;23.57
4410;BME280;2218;51.408;7.208;2024-01-11T13:01:42;101373.09;;;19.76;23.47
4410;BME280;2218;51.408;7.208;2024-01-11T13:04:10;101360.75;;;19.77;23.69
4410;BME280;2218;51.408;7.208;2024-01-11T13:06:38;101366.03;;;19.77;23.66
4410;BME280;2218;51.408;7.208;2024-01-11T13:09:05;101366.88;;;19.77;23.63
4410;BME280;2218;51.408;7.208;2024-01-11T13:11:35;101349.34;;;19.76;23.58
4410;BME280;2218;51.408;7.208;2024-01-11T13:14:02;101356.31;;;19.77;23.83